Time;durP1;ratioP1;P1;durP2;ratioP2;P2;SDS_P1;SDS_P2;PMS_P1;PMS_P2;Temp;Humidity;BMP_temperature;BMP_pressure;BME280_temperature;BME280_humidity;BME280_pressure;Samples;Min_cycle;Max_cycle;Signal;HPM_P1;HPM_P2
2022/05/21 00:01:06;;;;;;;;;;;16.20;99.90;;;;;;4589044;19;20353;-21
2022/05/21 00:02:37;;;;;;;;;;;16.20;99.90;;;;;;4591799;19;19923;-20
2022/05/21 00:04:08;;;;;;;;;;;16.20;99.90;;;;;;4592330;19;19919;-20
2022/05/21 00:05:39;;;;;;;;;;;16.30;99.90;;;;;;4590867;19;19926;-20
2022/05/21 00:07:10;;;;;;;;;;;16.20;99.90;;;;;;4591992;19;19946;-20
2022/05/21 00:08:41;;;;;;;;;;;16.20;99.90;;;;;;4593282;19;19927;-20
2022/05/21 00:10:13;;;;;;;;;;;16.20;99.90;;;;;;4591545;19;19918;-20
2022/05/21 00:11:44;;;;;;;;;;;16.20;99.90;;;;;;4592559;19;19970;-20
2022/05/21 00:13:15;;;;;;;;;;;16.20;99.90;;;;;;4592652;19;19922;-20
2022/05/21 00:14:46;;;;;;;;;;;16.20;99.90;;;;;;4592029;19;19935;-20
2022/05/21 00:16:17;;;;;;;;;;;16.30;99.90;;;;;;4592124;19;19918;-20
2022/05/21 00:17:48;;;;;;;;;;;16.30;99.90;;;;;;4589324;19;19918;-20
2022/05/21 00:19:19;;;;;;;;;;;16.30;99.90;;;;;;4591867;19;20336;-20
2022/05/21 00:20:50;;;;;;;;;;;16.20;99.90;;;;;;4591371;19;19914;-20
2022/05/21 00:22:21;;;;;;;;;;;16.30;99.90;;;;;;4591998;19;19923;-20
2022/05/21 00:23:52;;;;;;;;;;;16.30;99.90;;;;;;4592112;19;19911;-20
2022/05/21 00:25:41;;;;;;;;;;;16.20;99.90;;;;;;4590914;19;20337;-20
2022/05/21 00:27:12;;;;;;;;;;;16.20;99.90;;;;;;4591379;19;19919;-20
2022/05/21 00:28:44;;;;;;;;;;;16.20;99.90;;;;;;4591804;19;19918;-20
2022/05/21 00:30:15;;;;;;;;;;;16.20;99.90;;;;;;4590166;19;20022;-20
2022/05/21 00:31:46;;;;;;;;;;;16.20;99.90;;;;;;4591604;19;19914;-20
2022/05/21 00:33:17;;;;;;;;;;;16.20;99.90;;;;;;4590417;19;19989;-21
2022/05/21 00:34:48;;;;;;;;;;;16.20;99.90;;;;;;4591389;19;20348;-20
2022/05/21 00:36:19;;;;;;;;;;;16.20;99.90;;;;;;4591390;19;19989;-20
2022/05/21 00:37:50;;;;;;;;;;;16.20;99.90;;;;;;4592663;19;20261;-20
2022/05/21 00:39:21;;;;;;;;;;;16.20;99.90;;;;;;4590545;19;19915;-20
2022/05/21 00:40:53;;;;;;;;;;;16.20;99.90;;;;;;4591353;19;19922;-20
2022/05/21 00:42:24;;;;;;;;;;;16.20;99.90;;;;;;4592035;19;19918;-20
2022/05/21 00:43:57;;;;;;;;;;;16.20;99.90;;;;;;4591799;19;20355;-20
2022/05/21 00:45:27;;;;;;;;;;;16.20;99.90;;;;;;4588163;19;19982;-20
2022/05/21 00:46:58;;;;;;;;;;;16.20;99.90;;;;;;4591538;19;19911;-20
2022/05/21 00:48:29;;;;;;;;;;;16.20;99.90;;;;;;4591483;19;20388;-20
2022/05/21 00:50:00;;;;;;;;;;;16.20;99.90;;;;;;4589934;19;19947;-21
2022/05/21 00:51:38;;;;;;;;;;;16.20;99.90;;;;;;4589651;19;19914;-20
2022/05/21 00:53:10;;;;;;;;;;;16.20;99.90;;;;;;4591179;19;20313;-20
2022/05/21 00:54:42;;;;;;;;;;;16.20;99.90;;;;;;4590753;19;19991;-20
2022/05/21 00:56:13;;;;;;;;;;;16.10;99.90;;;;;;4591326;19;19948;-20
2022/05/21 00:57:45;;;;;;;;;;;16.10;99.90;;;;;;4591196;19;19974;-20
2022/05/21 01:01:06;;;;;;;;;;;16.10;99.90;;;;;;4588921;19;19923;-20
2022/05/21 01:02:38;;;;;;;;;;;16.10;99.90;;;;;;4589783;19;20331;-20
2022/05/21 01:04:09;;;;;;;;;;;16.10;99.90;;;;;;4590701;19;20309;-20
2022/05/21 01:05:40;;;;;;;;;;;16.10;99.90;;;;;;4591667;19;19921;-20
2022/05/21 01:07:12;;;;;;;;;;;16.20;99.90;;;;;;4590565;19;19939;-20
2022/05/21 01:08:43;;;;;;;;;;;16.10;99.90;;;;;;4590578;19;20336;-20
2022/05/21 01:10:15;;;;;;;;;;;16.10;99.90;;;;;;4591498;19;19919;-20
2022/05/21 01:11:46;;;;;;;;;;;16.10;99.90;;;;;;4591600;19;19917;-20
2022/05/21 01:13:18;;;;;;;;;;;16.10;99.90;;;;;;4591343;19;19919;-20
2022/05/21 01:14:51;;;;;;;;;;;16.10;99.90;;;;;;4588801;19;20015;-20
2022/05/21 01:16:22;;;;;;;;;;;16.10;99.90;;;;;;4588615;19;19940;-20
2022/05/21 01:17:53;;;;;;;;;;;16.00;99.90;;;;;;4590630;19;19966;-20
2022/05/21 01:19:24;;;;;;;;;;;16.00;99.90;;;;;;4590802;19;19921;-20
2022/05/21 01:20:56;;;;;;;;;;;16.00;99.90;;;;;;4590726;19;20262;-20
2022/05/21 01:22:27;;;;;;;;;;;16.00;99.90;;;;;;4591317;19;19985;-20
2022/05/21 01:23:58;;;;;;;;;;;16.00;99.90;;;;;;4589787;19;19915;-20
2022/05/21 01:25:31;;;;;;;;;;;16.00;99.90;;;;;;4589574;19;20425;-20
2022/05/21 01:27:03;;;;;;;;;;;16.00;99.90;;;;;;4590677;19;19914;-20
2022/05/21 01:28:34;;;;;;;;;;;16.00;99.90;;;;;;4591037;19;19923;-21
2022/05/21 01:30:05;;;;;;;;;;;16.00;99.90;;;;;;4591460;19;20323;-21
2022/05/21 01:31:37;;;;;;;;;;;16.00;99.90;;;;;;4589874;19;20039;-20
2022/05/21 01:33:09;;;;;;;;;;;16.00;99.90;;;;;;4590726;19;19961;-20
2022/05/21 01:34:39;;;;;;;;;;;16.00;99.90;;;;;;4589795;19;19926;-20
2022/05/21 01:36:10;;;;;;;;;;;16.00;99.90;;;;;;4590970;19;19919;-20
2022/05/21 01:37:41;;;;;;;;;;;16.00;99.90;;;;;;4589603;19;19990;-21
2022/05/21 01:39:13;;;;;;;;;;;16.00;99.90;;;;;;4590508;19;20286;-21
2022/05/21 01:40:44;;;;;;;;;;;16.00;99.90;;;;;;4590841;19;20249;-21
2022/05/21 01:42:15;;;;;;;;;;;16.00;99.90;;;;;;4590827;19;19919;-19
2022/05/21 01:45:35;;;;;;;;;;;16.00;99.90;;;;;;4589217;19;19922;-21
2022/05/21 01:47:13;;;;;;;;;;;16.00;99.90;;;;;;4590692;19;19922;-20
2022/05/21 01:48:44;;;;;;;;;;;16.00;99.90;;;;;;4590582;19;19910;-20
2022/05/21 01:50:15;;;;;;;;;;;16.00;99.90;;;;;;4590021;19;19919;-20
2022/05/21 01:51:46;;;;;;;;;;;16.00;99.90;;;;;;4589501;19;20242;-21
2022/05/21 01:53:17;;;;;;;;;;;16.00;99.90;;;;;;4590263;19;19936;-21
2022/05/21 01:54:49;;;;;;;;;;;16.00;99.90;;;;;;4587597;19;19926;-20
2022/05/21 01:56:21;;;;;;;;;;;16.00;99.90;;;;;;4588668;19;19923;-20
2022/05/21 01:57:51;;;;;;;;;;;16.00;99.90;;;;;;4589992;19;19929;-20
2022/05/21 01:59:22;;;;;;;;;;;15.90;99.90;;;;;;4589642;19;20309;-21
2022/05/21 02:00:54;;;;;;;;;;;15.90;99.90;;;;;;4589817;19;19914;-21
2022/05/21 02:02:25;;;;;;;;;;;15.90;99.90;;;;;;4589179;19;20393;-21
2022/05/21 02:03:56;;;;;;;;;;;15.90;99.90;;;;;;4593484;19;19915;-21
2022/05/21 02:05:27;;;;;;;;;;;15.90;99.90;;;;;;4592112;19;19919;-20
2022/05/21 02:06:57;;;;;;;;;;;15.90;99.90;;;;;;4595949;19;19919;-20
2022/05/21 02:08:29;;;;;;;;;;;15.90;99.90;;;;;;4597149;19;19927;-20
2022/05/21 02:10:00;;;;;;;;;;;15.90;99.90;;;;;;4595425;19;19941;-20
2022/05/21 02:11:31;;;;;;;;;;;15.90;99.90;;;;;;4595904;19;19914;-20
2022/05/21 02:13:02;;;;;;;;;;;15.90;99.90;;;;;;4596181;19;20255;-20
2022/05/21 02:14:33;;;;;;;;;;;16.00;99.90;;;;;;4595749;19;19923;-21
2022/05/21 02:16:04;;;;;;;;;;;16.00;99.90;;;;;;4594734;19;19910;-21
2022/05/21 02:17:35;;;;;;;;;;;16.00;99.90;;;;;;4594440;19;19915;-21
2022/05/21 02:19:06;;;;;;;;;;;16.00;99.90;;;;;;4594911;19;19919;-21
2022/05/21 02:20:37;;;;;;;;;;;16.00;99.90;;;;;;4594122;19;19947;-21
2022/05/21 02:22:08;;;;;;;;;;;16.10;99.90;;;;;;4595208;19;19919;-21
2022/05/21 02:23:39;;;;;;;;;;;16.00;99.90;;;;;;4593213;19;19915;-21
2022/05/21 02:25:10;;;;;;;;;;;16.10;99.90;;;;;;4592677;19;19911;-21
2022/05/21 02:26:41;;;;;;;;;;;16.10;99.90;;;;;;4594511;19;19915;-21
2022/05/21 02:28:12;;;;;;;;;;;16.10;99.90;;;;;;4594697;19;19939;-21
2022/05/21 02:29:43;;;;;;;;;;;16.10;99.90;;;;;;4593883;19;19923;-21
2022/05/21 02:31:14;;;;;;;;;;;16.10;99.90;;;;;;4594394;19;19919;-21
2022/05/21 02:32:46;;;;;;;;;;;16.10;99.90;;;;;;4594908;19;19936;-21
2022/05/21 02:34:17;;;;;;;;;;;16.10;99.90;;;;;;4593007;19;19918;-21
2022/05/21 02:35:48;;;;;;;;;;;16.10;99.90;;;;;;4594362;19;19947;-21
2022/05/21 02:40:58;;;;;;;;;;;16.40;99.90;;;;;;4593451;19;19910;-21
2022/05/21 02:42:48;;;;;;;;;;;16.50;99.90;;;;;;4593886;19;19978;-22
2022/05/21 02:44:19;;;;;;;;;;;16.60;99.90;;;;;;4592770;19;19942;-21
2022/05/21 02:45:50;;;;;;;;;;;16.70;99.90;;;;;;4591728;19;19966;-21
2022/05/21 02:47:21;;;;;;;;;;;16.80;99.90;;;;;;4594169;19;19910;-21
2022/05/21 02:48:52;;;;;;;;;;;16.90;99.90;;;;;;4593838;19;19910;-21
2022/05/21 02:50:25;;;;;;;;;;;17.00;99.90;;;;;;4593999;19;19934;-21
2022/05/21 02:51:57;;;;;;;;;;;17.10;99.90;;;;;;4593204;19;19919;-21
2022/05/21 02:53:28;;;;;;;;;;;17.10;99.90;;;;;;4594015;19;19915;-21
2022/05/21 02:54:59;;;;;;;;;;;17.20;99.90;;;;;;4592495;19;19915;-21
2022/05/21 02:56:30;;;;;;;;;;;17.20;99.90;;;;;;4594102;19;19998;-21
2022/05/21 02:58:01;;;;;;;;;;;17.20;99.90;;;;;;4594070;19;19919;-21
2022/05/21 02:59:32;;;;;;;;;;;17.20;99.90;;;;;;4593665;19;19970;-21
2022/05/21 03:01:02;;;;;;;;;;;17.30;99.90;;;;;;4593366;19;19922;-21
2022/05/21 03:02:34;;;;;;;;;;;17.30;99.90;;;;;;4594142;19;19970;-21
2022/05/21 03:04:04;;;;;;;;;;;17.30;99.90;;;;;;4593855;19;19919;-21
2022/05/21 03:05:35;;;;;;;;;;;17.30;99.90;;;;;;4590428;19;19946;-21
2022/05/21 03:07:06;;;;;;;;;;;17.40;99.90;;;;;;4593584;19;19919;-21
2022/05/21 03:10:29;;;;;;;;;;;17.40;99.90;;;;;;4593502;19;19923;-21
2022/05/21 03:11:59;;;;;;;;;;;17.40;99.90;;;;;;4593756;19;19915;-21
2022/05/21 03:13:31;;;;;;;;;;;17.40;99.90;;;;;;4593655;19;20230;-21
2022/05/21 03:15:03;;;;;;;;;;;17.50;99.90;;;;;;4590926;19;19981;-21
2022/05/21 03:16:33;;;;;;;;;;;17.50;99.90;;;;;;4592800;19;20258;-21
2022/05/21 03:18:05;;;;;;;;;;;17.50;99.90;;;;;;4593032;19;19928;-21
2022/05/21 03:19:36;;;;;;;;;;;17.50;99.90;;;;;;4593458;19;19918;-21
2022/05/21 03:21:07;;;;;;;;;;;17.50;99.90;;;;;;4593357;19;19944;-21
2022/05/21 03:22:38;;;;;;;;;;;17.60;99.90;;;;;;4594264;19;19918;-21
2022/05/21 03:24:09;;;;;;;;;;;17.60;99.90;;;;;;4593065;19;19936;-21
2022/05/21 03:25:40;;;;;;;;;;;17.60;99.90;;;;;;4591857;19;19915;-21
2022/05/21 03:27:11;;;;;;;;;;;17.60;99.90;;;;;;4593724;19;19971;-21
2022/05/21 03:28:42;;;;;;;;;;;17.60;99.90;;;;;;4593406;19;19920;-21
2022/05/21 03:30:13;;;;;;;;;;;17.60;99.90;;;;;;4591915;19;19915;-21
2022/05/21 03:31:44;;;;;;;;;;;17.60;99.90;;;;;;4592982;19;19914;-21
2022/05/21 03:33:16;;;;;;;;;;;17.60;99.90;;;;;;4593594;19;19957;-21
2022/05/21 03:34:46;;;;;;;;;;;17.60;99.90;;;;;;4592772;19;19926;-21
2022/05/21 03:36:17;;;;;;;;;;;17.60;99.90;;;;;;4593255;19;19922;-21
2022/05/21 03:37:48;;;;;;;;;;;17.70;99.90;;;;;;4593708;19;19915;-21
2022/05/21 03:39:19;;;;;;;;;;;17.70;99.90;;;;;;4593700;19;19922;-21
2022/05/21 03:40:50;;;;;;;;;;;17.70;99.90;;;;;;4592786;19;19925;-21
2022/05/21 03:42:21;;;;;;;;;;;17.70;99.90;;;;;;4593200;19;19917;-21
2022/05/21 03:43:52;;;;;;;;;;;17.70;99.90;;;;;;4592638;19;20238;-21
2022/05/21 03:45:23;;;;;;;;;;;17.70;99.90;;;;;;4590746;19;19918;-21
2022/05/21 03:46:54;;;;;;;;;;;17.70;99.90;;;;;;4591700;19;20352;-21
2022/05/21 03:48:25;;;;;;;;;;;17.70;99.90;;;;;;4592582;19;19915;-21
2022/05/21 03:49:56;;;;;;;;;;;17.70;99.90;;;;;;4592780;19;19939;-21
2022/05/21 03:51:27;;;;;;;;;;;17.70;99.90;;;;;;4591645;19;20325;-21
2022/05/21 03:52:59;;;;;;;;;;;17.70;99.90;;;;;;4592696;19;19923;-21
2022/05/21 03:54:30;;;;;;;;;;;17.80;99.90;;;;;;4591888;19;19966;-21
2022/05/21 03:56:01;;;;;;;;;;;17.80;99.90;;;;;;4590820;19;20338;-21
2022/05/21 03:57:32;;;;;;;;;;;17.80;99.90;;;;;;4592109;19;19914;-21
2022/05/21 03:59:03;;;;;;;;;;;17.80;99.90;;;;;;4591488;19;20277;-21
2022/05/21 04:00:37;;;;;;;;;;;17.80;99.90;;;;;;4591708;19;19978;-21
2022/05/21 04:02:07;;;;;;;;;;;17.70;99.90;;;;;;4593126;19;19935;-21
2022/05/21 04:03:39;;;;;;;;;;;17.70;99.90;;;;;;4592241;19;19923;-21
2022/05/21 04:05:10;;;;;;;;;;;17.70;99.90;;;;;;4589234;19;19934;-21
2022/05/21 04:06:41;;;;;;;;;;;17.70;99.90;;;;;;4591883;19;19919;-21
2022/05/21 04:08:12;;;;;;;;;;;17.80;99.90;;;;;;4592577;19;19935;-21
2022/05/21 04:09:43;;;;;;;;;;;17.80;99.90;;;;;;4591520;19;19942;-21
2022/05/21 04:11:14;;;;;;;;;;;17.80;99.90;;;;;;4590996;19;19947;-21
2022/05/21 04:12:45;;;;;;;;;;;17.90;99.90;;;;;;4592088;19;19915;-21
2022/05/21 04:14:16;;;;;;;;;;;18.00;99.90;;;;;;4592111;19;19953;-21
2022/05/21 04:15:47;;;;;;;;;;;18.00;99.90;;;;;;4592519;19;20321;-21
2022/05/21 04:17:18;;;;;;;;;;;18.00;99.90;;;;;;4592299;19;19966;-21
2022/05/21 04:18:49;;;;;;;;;;;17.90;99.90;;;;;;4592832;19;19918;-21
2022/05/21 04:20:21;;;;;;;;;;;17.90;99.90;;;;;;4591591;19;20325;-21
2022/05/21 04:21:53;;;;;;;;;;;18.00;99.90;;;;;;4591991;19;19927;-21
2022/05/21 04:23:23;;;;;;;;;;;18.00;99.90;;;;;;4590754;19;19919;-21
2022/05/21 04:24:55;;;;;;;;;;;18.00;99.90;;;;;;4591239;19;20261;-21
2022/05/21 04:26:25;;;;;;;;;;;18.10;99.90;;;;;;4590645;19;19915;-22
2022/05/21 04:27:57;;;;;;;;;;;18.00;99.90;;;;;;4591356;19;19919;-21
2022/05/21 04:29:27;;;;;;;;;;;18.00;99.90;;;;;;4590823;19;19914;-21
2022/05/21 04:30:58;;;;;;;;;;;18.20;99.90;;;;;;4590671;19;20255;-21
2022/05/21 04:32:29;;;;;;;;;;;18.20;99.90;;;;;;4592068;19;19918;-22
2022/05/21 04:34:00;;;;;;;;;;;18.60;99.90;;;;;;4589710;19;19926;-22
2022/05/21 04:37:21;;;;;;;;;;;18.40;99.90;;;;;;4591578;19;19923;-21
2022/05/21 04:38:52;;;;;;;;;;;18.30;99.90;;;;;;4591933;19;20332;-22
2022/05/21 04:40:23;;;;;;;;;;;18.20;99.90;;;;;;4591127;19;19915;-21
2022/05/21 04:41:54;;;;;;;;;;;18.10;99.90;;;;;;4592301;19;19917;-22
2022/05/21 04:43:25;;;;;;;;;;;18.10;99.90;;;;;;4590483;19;20013;-21
2022/05/21 04:44:56;;;;;;;;;;;18.30;99.90;;;;;;4590734;19;19929;-21
2022/05/21 04:46:27;;;;;;;;;;;18.40;99.90;;;;;;4592134;19;19935;-21
2022/05/21 04:48:01;;;;;;;;;;;18.50;99.90;;;;;;4591951;19;19937;-22
2022/05/21 04:49:32;;;;;;;;;;;18.70;99.90;;;;;;4590295;19;19910;-22
2022/05/21 04:51:03;;;;;;;;;;;18.90;99.90;;;;;;4591368;19;19934;-21
2022/05/21 04:52:34;;;;;;;;;;;19.20;99.90;;;;;;4592275;19;19918;-21
2022/05/21 04:54:05;;;;;;;;;;;19.10;99.90;;;;;;4592132;19;19918;-21
2022/05/21 04:55:36;;;;;;;;;;;19.00;99.90;;;;;;4590218;19;19919;-22
2022/05/21 04:57:07;;;;;;;;;;;18.70;99.90;;;;;;4590287;19;20337;-21
2022/05/21 04:58:38;;;;;;;;;;;18.70;99.90;;;;;;4590494;19;19935;-21
2022/05/21 05:00:09;;;;;;;;;;;18.70;99.90;;;;;;4591102;19;20352;-22
2022/05/21 05:01:40;;;;;;;;;;;18.60;99.90;;;;;;4590418;19;19914;-21
2022/05/21 05:03:11;;;;;;;;;;;18.60;99.90;;;;;;4591224;19;19919;-22
2022/05/21 05:04:42;;;;;;;;;;;18.50;99.90;;;;;;4590136;19;19919;-21
2022/05/21 05:06:13;;;;;;;;;;;18.60;99.90;;;;;;4590717;19;19922;-21
2022/05/21 05:07:44;;;;;;;;;;;18.80;99.90;;;;;;4591206;19;19942;-22
2022/05/21 05:09:19;;;;;;;;;;;18.80;99.90;;;;;;4591651;19;19914;-21
2022/05/21 05:10:50;;;;;;;;;;;18.70;99.90;;;;;;4591318;19;19982;-21
2022/05/21 05:12:21;;;;;;;;;;;18.70;99.90;;;;;;4591026;19;19915;-21
2022/05/21 05:13:52;;;;;;;;;;;18.70;99.90;;;;;;4591515;19;19911;-21
2022/05/21 05:15:23;;;;;;;;;;;18.60;99.90;;;;;;4591599;19;20245;-21
2022/05/21 05:16:54;;;;;;;;;;;18.50;99.90;;;;;;4591173;19;19933;-21
2022/05/21 05:18:30;;;;;;;;;;;18.50;99.90;;;;;;4590845;19;19930;-21
2022/05/21 05:20:01;;;;;;;;;;;18.40;99.90;;;;;;4590790;19;19918;-21
2022/05/21 05:21:32;;;;;;;;;;;18.40;99.90;;;;;;4592732;19;19952;-21
2022/05/21 05:23:03;;;;;;;;;;;18.50;99.90;;;;;;4593586;19;19936;-22
2022/05/21 05:24:35;;;;;;;;;;;18.70;99.90;;;;;;4590426;19;19915;-21
2022/05/21 05:26:06;;;;;;;;;;;19.00;99.90;;;;;;4589623;19;20325;-21
2022/05/21 05:27:36;;;;;;;;;;;19.10;99.90;;;;;;4590207;19;19986;-21
2022/05/21 05:29:09;;;;;;;;;;;18.90;99.90;;;;;;4590419;19;19943;-21
2022/05/21 05:30:40;;;;;;;;;;;18.70;99.90;;;;;;4589608;19;19922;-21
2022/05/21 05:32:11;;;;;;;;;;;18.40;99.90;;;;;;4591025;19;20244;-21
2022/05/21 05:33:42;;;;;;;;;;;18.30;99.90;;;;;;4591022;19;19922;-22
2022/05/21 05:35:13;;;;;;;;;;;18.50;99.90;;;;;;4590896;19;19911;-21
2022/05/21 05:36:47;;;;;;;;;;;18.40;99.90;;;;;;4590781;19;20364;-21
2022/05/21 05:38:18;;;;;;;;;;;18.40;99.90;;;;;;4590914;19;19921;-21
2022/05/21 05:39:49;;;;;;;;;;;18.30;99.90;;;;;;4594766;19;20258;-21
2022/05/21 05:41:20;;;;;;;;;;;18.30;99.90;;;;;;4594653;19;20006;-22
2022/05/21 05:42:51;;;;;;;;;;;18.30;99.90;;;;;;4595448;19;19910;-22
2022/05/21 05:44:21;;;;;;;;;;;18.20;99.90;;;;;;4595419;19;19918;-21
2022/05/21 05:45:58;;;;;;;;;;;18.30;99.90;;;;;;4595080;19;20242;-22
2022/05/21 05:47:31;;;;;;;;;;;18.30;99.90;;;;;;4595120;19;20242;-21
2022/05/21 05:49:02;;;;;;;;;;;18.30;99.90;;;;;;4595398;19;19942;-22
2022/05/21 05:50:33;;;;;;;;;;;18.20;99.90;;;;;;4595076;19;20329;-21
2022/05/21 05:52:05;;;;;;;;;;;18.20;99.90;;;;;;4595123;19;19939;-22
2022/05/21 05:53:36;;;;;;;;;;;18.30;99.90;;;;;;4594132;19;19915;-21
2022/05/21 05:55:07;;;;;;;;;;;18.40;99.90;;;;;;4593363;19;19925;-21
2022/05/21 05:56:42;;;;;;;;;;;18.70;99.90;;;;;;4594053;19;20329;-21
2022/05/21 06:00:03;;;;;;;;;;;18.60;99.90;;;;;;4594086;19;20343;-21
2022/05/21 06:01:34;;;;;;;;;;;18.60;99.90;;;;;;4594639;19;19926;-22
2022/05/21 06:03:05;;;;;;;;;;;18.50;99.90;;;;;;4595200;19;19918;-21
2022/05/21 06:04:36;;;;;;;;;;;18.40;99.90;;;;;;4594487;19;20329;-21
2022/05/21 06:06:07;;;;;;;;;;;18.50;99.90;;;;;;4593034;19;19922;-20
2022/05/21 06:07:45;;;;;;;;;;;19.00;99.90;;;;;;4594889;19;19910;-20
2022/05/21 06:09:16;;;;;;;;;;;19.50;99.90;;;;;;4593189;19;19926;-20
2022/05/21 06:10:49;;;;;;;;;;;19.90;99.90;;;;;;4594027;19;19922;-21
2022/05/21 06:12:23;;;;;;;;;;;20.10;99.90;;;;;;4595042;19;19918;-21
2022/05/21 06:13:54;;;;;;;;;;;20.10;99.90;;;;;;4594814;19;19952;-20
2022/05/21 06:15:25;;;;;;;;;;;19.80;99.90;;;;;;4594305;19;19914;-21
2022/05/21 06:16:56;;;;;;;;;;;19.90;99.90;;;;;;4593797;19;19926;-20
2022/05/21 06:18:27;;;;;;;;;;;18.90;99.90;;;;;;4593423;19;19984;-21
2022/05/21 06:19:58;;;;;;;;;;;16.40;99.90;;;;;;4593365;19;20263;-20
2022/05/21 06:21:29;;;;;;;;;;;15.60;99.90;;;;;;4593294;19;19910;-20
2022/05/21 06:23:00;;;;;;;;;;;15.40;99.90;;;;;;4595235;19;19931;-20
2022/05/21 06:24:35;;;;;;;;;;;15.30;99.90;;;;;;4594446;19;19910;-20
2022/05/21 06:26:06;;;;;;;;;;;15.30;99.90;;;;;;4595252;19;20264;-20
2022/05/21 06:27:37;;;;;;;;;;;15.30;99.90;;;;;;4594842;19;19935;-20
2022/05/21 06:29:26;;;;;;;;;;;15.30;99.90;;;;;;4593795;19;19918;-20
2022/05/21 06:30:57;;;;;;;;;;;15.30;99.90;;;;;;4593798;19;20001;-20
2022/05/21 06:32:28;;;;;;;;;;;15.30;99.90;;;;;;4594525;19;19935;-20
2022/05/21 06:33:59;;;;;;;;;;;15.30;99.90;;;;;;4592118;19;19915;-20
2022/05/21 06:35:33;;;;;;;;;;;15.40;99.90;;;;;;4592323;19;19922;-21
2022/05/21 06:37:08;;;;;;;;;;;15.30;99.90;;;;;;4592860;19;19936;-20
2022/05/21 06:38:39;;;;;;;;;;;15.40;99.90;;;;;;4592852;19;19911;-20
2022/05/21 06:40:10;;;;;;;;;;;15.40;99.90;;;;;;4591418;19;20331;-21
2022/05/21 06:41:41;;;;;;;;;;;15.30;99.90;;;;;;4591272;19;19917;-20
2022/05/21 06:43:12;;;;;;;;;;;15.40;99.90;;;;;;4594676;19;19982;-20
2022/05/21 06:44:43;;;;;;;;;;;15.40;99.90;;;;;;4594348;19;19919;-21
2022/05/21 06:46:13;;;;;;;;;;;15.40;99.90;;;;;;4594228;19;20325;-20
2022/05/21 06:47:44;;;;;;;;;;;15.40;99.90;;;;;;4593871;19;19978;-20
2022/05/21 06:49:17;;;;;;;;;;;15.40;99.90;;;;;;4593179;19;19922;-20
2022/05/21 06:50:48;;;;;;;;;;;15.40;99.90;;;;;;4591854;19;19918;-20
2022/05/21 06:52:19;;;;;;;;;;;15.40;99.90;;;;;;4592720;19;19928;-20
2022/05/21 06:53:50;;;;;;;;;;;15.40;99.90;;;;;;4591949;19;19919;-20
2022/05/21 06:55:21;;;;;;;;;;;15.50;99.90;;;;;;4589848;19;19936;-20
2022/05/21 06:56:53;;;;;;;;;;;15.50;99.90;;;;;;4589893;19;19929;-20
2022/05/21 06:58:23;;;;;;;;;;;15.50;99.90;;;;;;4593516;19;19914;-20
2022/05/21 06:59:55;;;;;;;;;;;15.50;99.90;;;;;;4591970;19;19996;-20
2022/05/21 07:01:26;;;;;;;;;;;15.50;99.90;;;;;;4592820;19;19927;-20
2022/05/21 07:02:57;;;;;;;;;;;15.60;99.90;;;;;;4592303;19;19915;-20
2022/05/21 07:08:14;;;;;;;;;;;15.60;99.90;;;;;;4593720;19;19938;-20
2022/05/21 07:09:45;;;;;;;;;;;15.60;99.90;;;;;;4593898;19;19911;-20
2022/05/21 07:11:16;;;;;;;;;;;15.60;99.90;;;;;;4593161;19;19915;-20
2022/05/21 07:12:47;;;;;;;;;;;15.60;99.90;;;;;;4593647;19;19974;-20
2022/05/21 07:14:18;;;;;;;;;;;15.60;99.90;;;;;;4593383;19;20392;-20
2022/05/21 07:15:49;;;;;;;;;;;15.60;99.90;;;;;;4592629;19;19914;-20
2022/05/21 07:17:20;;;;;;;;;;;15.60;99.90;;;;;;4592871;19;19919;-20
2022/05/21 07:18:51;;;;;;;;;;;15.60;99.90;;;;;;4593648;19;19922;-21
2022/05/21 07:20:22;;;;;;;;;;;15.60;99.90;;;;;;4591606;19;19923;-20
2022/05/21 07:21:56;;;;;;;;;;;15.60;99.90;;;;;;4590335;19;19925;-20
2022/05/21 07:23:28;;;;;;;;;;;15.60;99.90;;;;;;4591242;19;20584;-20
2022/05/21 07:25:02;;;;;;;;;;;15.70;99.90;;;;;;4591667;19;19918;-21
2022/05/21 07:26:33;;;;;;;;;;;15.70;99.90;;;;;;4591379;19;19939;-20
2022/05/21 07:28:04;;;;;;;;;;;15.70;99.90;;;;;;4593692;19;20329;-20
2022/05/21 07:29:35;;;;;;;;;;;15.70;99.90;;;;;;4592222;19;19911;-20
2022/05/21 07:31:06;;;;;;;;;;;15.70;99.90;;;;;;4593001;19;20333;-21
2022/05/21 07:32:37;;;;;;;;;;;15.70;99.90;;;;;;4593437;19;20404;-20
2022/05/21 07:34:09;;;;;;;;;;;15.70;99.90;;;;;;4592193;19;19934;-20
2022/05/21 07:35:40;;;;;;;;;;;15.70;99.90;;;;;;4592015;19;20333;-20
2022/05/21 07:37:11;;;;;;;;;;;15.60;99.90;;;;;;4591637;19;19952;-20
2022/05/21 07:38:42;;;;;;;;;;;15.60;99.90;;;;;;4590217;19;19978;-21
2022/05/21 07:40:13;;;;;;;;;;;15.60;99.90;;;;;;4593032;19;19911;-21
2022/05/21 07:41:44;;;;;;;;;;;15.60;99.90;;;;;;4593383;19;19922;-20
2022/05/21 07:43:16;;;;;;;;;;;15.60;99.90;;;;;;4593096;19;20245;-20
2022/05/21 07:44:47;;;;;;;;;;;15.50;99.90;;;;;;4592390;19;20004;-20
2022/05/21 07:46:18;;;;;;;;;;;15.60;99.90;;;;;;4592136;19;19947;-20
2022/05/21 07:47:51;;;;;;;;;;;15.60;99.90;;;;;;4591734;19;21158;-20
2022/05/21 07:49:23;;;;;;;;;;;15.50;99.90;;;;;;4592068;19;19921;-20
2022/05/21 07:50:55;;;;;;;;;;;15.60;99.90;;;;;;4591163;19;19983;-20
2022/05/21 07:52:27;;;;;;;;;;;15.60;99.90;;;;;;4592608;19;19921;-20
2022/05/21 07:53:58;;;;;;;;;;;15.60;99.90;;;;;;4592432;19;20310;-21
2022/05/21 07:55:28;;;;;;;;;;;15.60;99.90;;;;;;4589843;19;19923;-20
2022/05/21 07:57:01;;;;;;;;;;;15.60;99.90;;;;;;4592806;19;19928;-21
2022/05/21 07:58:32;;;;;;;;;;;15.70;99.90;;;;;;4592510;19;19915;-20
2022/05/21 08:00:05;;;;;;;;;;;15.70;99.90;;;;;;4591075;19;20394;-20
2022/05/21 08:01:36;;;;;;;;;;;15.70;99.90;;;;;;4590281;19;19923;-20
2022/05/21 08:03:08;;;;;;;;;;;15.70;99.90;;;;;;4589317;19;19932;-20
2022/05/21 08:04:39;;;;;;;;;;;15.80;99.90;;;;;;4589815;19;19929;-21
2022/05/21 08:06:10;;;;;;;;;;;15.80;99.90;;;;;;4590693;19;19927;-20
2022/05/21 08:07:41;;;;;;;;;;;15.80;99.90;;;;;;4593059;19;19928;-20
2022/05/21 08:09:12;;;;;;;;;;;15.90;99.90;;;;;;4592201;19;19907;-20
2022/05/21 08:10:43;;;;;;;;;;;15.90;99.90;;;;;;4591200;19;19931;-20
2022/05/21 08:12:14;;;;;;;;;;;15.90;99.90;;;;;;4591391;19;19931;-20
2022/05/21 08:13:45;;;;;;;;;;;15.90;99.90;;;;;;4591199;19;19918;-20
2022/05/21 08:15:17;;;;;;;;;;;16.00;99.90;;;;;;4589850;19;20328;-20
2022/05/21 08:16:49;;;;;;;;;;;16.00;99.90;;;;;;4590076;19;19998;-20
2022/05/21 08:18:20;;;;;;;;;;;16.00;99.90;;;;;;4592554;19;19962;-19
2022/05/21 08:19:50;;;;;;;;;;;16.00;99.90;;;;;;4590060;19;19914;-19
2022/05/21 08:21:22;;;;;;;;;;;16.00;99.90;;;;;;4590365;19;19926;-20
2022/05/21 08:28:21;;;;;;;;;;;16.00;99.90;;;;;;4591834;19;19974;-19
2022/05/21 08:29:52;;;;;;;;;;;16.00;99.90;;;;;;4591875;19;19915;-20
2022/05/21 08:31:23;;;;;;;;;;;16.00;99.90;;;;;;4591670;19;19939;-20
2022/05/21 08:32:58;;;;;;;;;;;16.00;99.90;;;;;;4592091;19;19929;-20
2022/05/21 08:34:29;;;;;;;;;;;16.00;99.90;;;;;;4587761;19;20235;-20
2022/05/21 08:36:00;;;;;;;;;;;16.00;99.90;;;;;;4589181;19;19929;-20
2022/05/21 08:37:35;;;;;;;;;;;16.00;99.90;;;;;;4590582;19;19915;-20
2022/05/21 08:39:11;;;;;;;;;;;16.00;99.90;;;;;;4591611;19;19918;-20
2022/05/21 08:40:45;;;;;;;;;;;16.00;99.90;;;;;;4591606;19;19943;-20
2022/05/21 08:42:26;;;;;;;;;;;16.00;99.90;;;;;;4591089;19;19964;-20
2022/05/21 08:44:06;;;;;;;;;;;16.00;99.90;;;;;;4590412;19;19925;-20
2022/05/21 08:45:48;;;;;;;;;;;16.00;99.90;;;;;;4588596;19;19941;-20
2022/05/21 08:47:23;;;;;;;;;;;16.00;99.90;;;;;;4590246;19;19914;-20
2022/05/21 08:49:01;;;;;;;;;;;16.00;99.90;;;;;;4591134;19;19922;-20
2022/05/21 08:50:34;;;;;;;;;;;16.00;99.90;;;;;;4589151;19;20333;-20
2022/05/21 08:52:07;;;;;;;;;;;16.10;99.90;;;;;;4589302;19;19929;-20
2022/05/21 08:53:49;;;;;;;;;;;16.10;99.90;;;;;;4590054;19;19915;-20
2022/05/21 08:55:23;;;;;;;;;;;16.10;99.90;;;;;;4588117;19;19926;-20
2022/05/21 08:56:54;;;;;;;;;;;16.10;99.90;;;;;;4589195;19;19919;-20
2022/05/21 08:58:25;;;;;;;;;;;16.20;99.90;;;;;;4588555;19;19971;-20
2022/05/21 09:00:16;;;;;;;;;;;16.10;99.90;;;;;;4588697;19;19958;-20
2022/05/21 09:01:47;;;;;;;;;;;16.10;99.90;;;;;;4588824;19;19915;-20
2022/05/21 09:03:20;;;;;;;;;;;16.10;99.90;;;;;;4587541;19;19922;-20
2022/05/21 09:04:51;;;;;;;;;;;16.00;99.90;;;;;;4587595;19;19986;-20
2022/05/21 09:06:25;;;;;;;;;;;16.00;99.90;;;;;;4588711;19;20342;-20
2022/05/21 09:08:02;;;;;;;;;;;15.90;99.90;;;;;;4587875;19;19914;-20
2022/05/21 09:09:40;;;;;;;;;;;15.90;99.90;;;;;;4588096;19;19919;-20
2022/05/21 09:11:12;;;;;;;;;;;16.00;99.90;;;;;;4588829;19;19982;-20
2022/05/21 09:13:03;;;;;;;;;;;16.00;99.90;;;;;;4587984;19;19953;-20
2022/05/21 09:14:41;;;;;;;;;;;16.00;99.90;;;;;;4589490;19;19911;-20
2022/05/21 09:18:03;;;;;;;;;;;16.00;99.90;;;;;;4588772;19;19921;-20